HGA weather

Egal International Airport
Hargeisa, Woqooyi Galbeed, Somalia

Public forecast

Using degrees Celsius for public forecast. Weather courtesy of forecast.io.

Current aviation weather report (METAR) for Egal International Airport

Report is more than 6 hours old.

Retrieved 2019/10/18 07:00 UTC (9 hours ago):

HCMH 180700Z 03010KT 9999 SCT030 21/18 Q1017

Aviation forecast (TAF) for Egal International Airport

Forecast is more than 12 hours old.

Retrieved 2017/06/04 06:30 UTC (2 years ago):

TAF TAF HAAB 040330Z 0406/0512 15008KT 9999 BKN028 SCT080 600 METAR HCMH 040600Z 188888023KT CAVOK 23/16 Q1019B NOSIG